Time;durP1;ratioP1;P1;durP2;ratioP2;P2;SDS_P1;SDS_P2;PMS_P1;PMS_P2;Temp;Humidity;BMP_temperature;BMP_pressure;BME280_temperature;BME280_humidity;BME280_pressure;Samples;Min_cycle;Max_cycle;Signal;HPM_P1;HPM_P2
2022/08/25 00:00:17;;;;;;;4.25;2.15;;;;;;;23.44;56.27;101522.94;5131299;27;20039;-76
2022/08/25 00:02:44;;;;;;;4.35;2.28;;;;;;;23.49;56.30;101520.78;5114647;27;20048;-76
2022/08/25 00:05:28;;;;;;;6.93;2.38;;;;;;;23.52;56.10;101520.53;5118629;28;20051;-76
2022/08/25 00:08:02;;;;;;;3.25;2.10;;;;;;;23.49;56.25;101520.78;5121275;28;20055;-76
2022/08/25 00:10:30;;;;;;;3.78;2.30;;;;;;;23.43;55.96;101514.03;5129673;28;20067;-76
2022/08/25 00:12:58;;;;;;;4.20;2.22;;;;;;;23.39;56.27;101517.91;5119768;27;20059;-76
2022/08/25 00:15:25;;;;;;;6.65;2.58;;;;;;;23.33;56.22;101515.69;5109307;28;20052;-77
2022/08/25 00:17:54;;;;;;;4.63;2.72;;;;;;;23.32;55.93;101520.19;5113015;28;20040;-75
2022/08/25 00:20:24;;;;;;;3.78;2.40;;;;;;;23.30;56.11;101521.28;5126604;27;20036;-74
2022/08/25 00:22:51;;;;;;;3.35;2.40;;;;;;;23.26;55.87;101520.66;5120439;27;21118;-76
2022/08/25 00:25:19;;;;;;;3.38;2.80;;;;;;;23.27;55.69;101523.22;5125919;27;20048;-77
2022/08/25 00:27:47;;;;;;;4.43;2.97;;;;;;;23.25;55.73;101525.16;5103933;27;20040;-78
2022/08/25 00:30:16;;;;;;;5.03;2.65;;;;;;;23.23;55.30;101512.78;5105570;28;20036;-77
2022/08/25 00:32:44;;;;;;;4.68;2.75;;;;;;;23.21;55.46;101514.72;5098130;27;20044;-78
2022/08/25 00:35:25;;;;;;;9.25;2.83;;;;;;;23.21;55.33;101517.41;5104008;28;20520;-78
2022/08/25 00:37:54;;;;;;;4.88;2.95;;;;;;;23.18;55.07;101525.69;5109469;28;20088;-78
2022/08/25 00:40:25;;;;;;;3.65;2.60;;;;;;;23.17;55.15;101524.81;5099483;27;20181;-78
2022/08/25 00:42:55;;;;;;;3.83;2.50;;;;;;;23.15;55.03;101521.38;5106227;27;20578;-78
2022/08/25 00:45:23;;;;;;;3.45;2.42;;;;;;;23.15;55.05;101520.53;5107293;27;20091;-78
2022/08/25 00:47:50;;;;;;;5.32;2.70;;;;;;;23.15;55.23;101521.38;5104096;27;20090;-78
2022/08/25 00:50:21;;;;;;;4.10;2.90;;;;;;;23.15;54.94;101531.28;5114822;27;20077;-78
2022/08/25 00:52:58;;;;;;;9.98;3.38;;;;;;;23.13;54.30;101530.53;5112552;27;20044;-77
2022/08/25 00:55:36;;;;;;;5.63;2.40;;;;;;;23.10;54.45;101527.09;5103486;27;20075;-78
2022/08/25 00:58:20;;;;;;;4.95;2.88;;;;;;;23.10;54.63;101527.09;5114824;27;20163;-78
2022/08/25 01:00:52;;;;;;;4.00;2.65;;;;;;;23.12;54.38;101529.69;5116499;27;20491;-78
2022/08/25 01:03:23;;;;;;;6.40;2.50;;;;;;;23.12;53.70;101524.31;5123694;27;20569;-78
2022/08/25 01:06:02;;;;;;;7.38;2.80;;;;;;;23.09;53.92;101525.41;5099194;28;20036;-78
2022/08/25 01:08:31;;;;;;;4.47;2.42;;;;;;;23.08;53.80;101522.81;5114832;27;20127;-78
2022/08/25 01:11:05;;;;;;;5.38;2.60;;;;;;;23.09;53.03;101524.53;5119670;27;20094;-78
2022/08/25 01:13:43;;;;;;;5.75;2.53;;;;;;;23.06;53.34;101525.63;5116550;27;20137;-79
2022/08/25 01:16:14;;;;;;;6.30;2.60;;;;;;;23.03;53.33;101525.84;5113374;27;20105;-78
2022/08/25 01:18:56;;;;;;;3.80;2.50;;;;;;;23.04;53.22;101521.34;5108124;28;20047;-76
2022/08/25 01:21:28;;;;;;;4.70;2.53;;;;;;;23.03;53.47;101522.31;5106041;27;20044;-76
2022/08/25 01:23:58;;;;;;;5.50;2.50;;;;;;;23.03;53.09;101522.31;5122313;27;20110;-76
2022/08/25 01:26:33;;;;;;;5.47;2.83;;;;;;;23.00;52.90;101514.44;5105365;27;20486;-76
2022/08/25 01:29:24;;;;;;;6.63;2.80;;;;;;;22.96;52.94;101517.34;5105074;28;20044;-75
2022/08/25 01:32:05;;;;;;;3.60;2.40;;;;;;;22.94;53.25;101523.81;5110420;27;20071;-76
2022/08/25 01:34:40;;;;;;;6.90;2.80;;;;;;;22.92;52.56;101523.06;5111169;27;20590;-76
2022/08/25 01:37:11;;;;;;;7.00;2.88;;;;;;;22.89;52.65;101515.25;5107565;28;20048;-76
2022/08/25 01:39:42;;;;;;;6.30;2.47;;;;;;;22.82;52.81;101520.19;5105295;27;20032;-75
2022/08/25 01:42:38;;;;;;;5.50;2.90;;;;;;;22.75;52.72;101517.09;5114342;27;20086;-77
2022/08/25 01:45:06;;;;;;;4.43;2.53;;;;;;;22.70;53.11;101513.84;5109066;27;20473;-76
2022/08/25 01:47:33;;;;;;;5.85;2.95;;;;;;;22.69;52.89;101512.13;5113296;27;20115;-77
2022/08/25 01:50:01;;;;;;;7.38;2.95;;;;;;;22.67;52.87;101508.72;5112260;27;20058;-75
2022/08/25 01:52:42;;;;;;;4.30;2.60;;;;;;;22.61;52.64;101515.38;5106872;27;20040;-75
2022/08/25 01:55:09;;;;;;;4.68;2.70;;;;;;;22.58;53.02;101514.75;5106659;27;20494;-75
2022/08/25 01:57:36;;;;;;;8.98;2.70;;;;;;;22.55;52.90;101513.09;5103339;27;20040;-76
2022/08/25 02:00:07;;;;;;;10.23;2.90;;;;;;;22.51;52.95;101514.31;5095451;28;20135;-75
2022/08/25 02:02:38;;;;;;;3.95;2.90;;;;;;;22.42;52.59;101510.44;5097122;27;20587;-74
2022/08/25 02:05:12;;;;;;;4.30;2.65;;;;;;;22.36;53.14;101521.59;5106094;27;20040;-76
2022/08/25 02:07:41;;;;;;;6.07;2.95;;;;;;;22.31;52.93;101518.34;5093929;28;20048;-75
2022/08/25 02:10:12;;;;;;;6.13;2.78;;;;;;;22.27;53.04;101516.84;5097825;28;20048;-75
2022/08/25 02:12:39;;;;;;;8.68;3.05;;;;;;;22.21;52.96;101520.81;5102169;27;20037;-75
2022/08/25 02:15:07;;;;;;;5.78;2.80;;;;;;;22.16;52.95;101520.28;5095611;28;20051;-76
2022/08/25 02:17:35;;;;;;;5.97;2.83;;;;;;;22.11;53.20;101514.38;5105584;28;20131;-75
2022/08/25 02:20:07;;;;;;;8.98;3.40;;;;;;;22.08;53.32;101526.16;5096268;28;20040;-73
2022/08/25 02:22:35;;;;;;;9.18;3.20;;;;;;;22.07;53.33;101523.59;5098243;27;20049;-74
2022/08/25 02:25:04;;;;;;;5.90;3.13;;;;;;;22.03;53.25;101528.31;5093700;27;20046;-73
2022/08/25 02:27:31;;;;;;;8.93;3.20;;;;;;;22.00;53.21;101524.03;5105434;28;20067;-74
2022/08/25 02:29:59;;;;;;;7.15;3.10;;;;;;;21.96;53.05;101518.97;5103820;27;20574;-74
2022/08/25 02:32:26;;;;;;;6.22;3.17;;;;;;;21.90;53.14;101520.25;5105638;27;20133;-74
2022/08/25 02:34:54;;;;;;;5.72;3.20;;;;;;;21.84;53.14;101520.63;5108167;27;20176;-75
2022/08/25 02:37:21;;;;;;;5.95;3.85;;;;;;;21.79;53.50;101522.78;5094057;28;20094;-74
2022/08/25 02:39:48;;;;;;;7.55;3.10;;;;;;;21.74;53.45;101525.78;5112148;27;20076;-75
2022/08/25 02:42:16;;;;;;;6.28;3.25;;;;;;;21.71;53.63;101529.53;5101660;27;20037;-75
2022/08/25 02:44:43;;;;;;;7.72;3.47;;;;;;;21.68;53.37;101527.03;5095686;28;20045;-74
2022/08/25 02:47:10;;;;;;;5.70;3.50;;;;;;;21.64;53.17;101528.19;5095309;27;20075;-75
2022/08/25 02:49:37;;;;;;;6.47;3.10;;;;;;;21.59;53.60;101526.78;5097294;27;20071;-75
2022/08/25 02:52:04;;;;;;;6.18;3.42;;;;;;;21.55;53.51;101518.94;5101509;27;20037;-75
2022/08/25 02:54:31;;;;;;;7.50;3.28;;;;;;;21.53;53.69;101520.84;5095102;27;20085;-75
2022/08/25 02:56:58;;;;;;;7.43;3.45;;;;;;;21.52;53.64;101515.56;5094730;28;20121;-75
2022/08/25 02:59:26;;;;;;;9.63;3.38;;;;;;;21.55;53.35;101515.38;5108560;28;20040;-75
2022/08/25 03:01:53;;;;;;;7.53;3.60;;;;;;;21.54;53.27;101514.53;5096902;27;20044;-76
2022/08/25 03:04:20;;;;;;;5.22;3.35;;;;;;;21.54;53.38;101514.53;5103786;28;20127;-76
2022/08/25 03:06:48;;;;;;;11.00;3.83;;;;;;;21.58;53.03;101515.16;5108784;27;20080;-77
2022/08/25 03:09:16;;;;;;;7.28;3.80;;;;;;;21.60;52.99;101507.03;5131836;28;20043;-78
2022/08/25 03:11:46;;;;;;;10.85;3.97;;;;;;;21.61;52.72;101506.97;5119108;27;20044;-77
2022/08/25 03:14:14;;;;;;;5.60;3.50;;;;;;;21.63;52.58;101499.66;5119360;27;20036;-77
2022/08/25 03:16:41;;;;;;;5.53;3.05;;;;;;;21.64;52.42;101498.69;5126461;28;20050;-78
2022/08/25 03:19:12;;;;;;;7.28;3.45;;;;;;;21.64;52.59;101500.53;5130578;27;20077;-77
2022/08/25 03:21:40;;;;;;;7.10;3.65;;;;;;;21.63;51.98;101494.28;5105186;27;20033;-79
2022/08/25 03:24:07;;;;;;;7.55;3.63;;;;;;;21.61;52.07;101492.66;5106486;28;20041;-77
2022/08/25 03:26:53;;;;;;;4.60;3.13;;;;;;;21.57;52.08;101494.66;5104379;28;20134;-75
2022/08/25 03:29:32;;;;;;;7.93;3.40;;;;;;;21.56;51.95;101487.59;5114856;27;20098;-74
2022/08/25 03:32:01;;;;;;;6.10;3.08;;;;;;;21.54;52.09;101487.69;5108515;28;20083;-73
2022/08/25 03:34:29;;;;;;;4.80;3.30;;;;;;;21.52;51.92;101486.06;5105922;28;20090;-76
2022/08/25 03:36:57;;;;;;;7.25;3.63;;;;;;;21.50;52.19;101483.47;5106983;27;20039;-76
2022/08/25 03:39:25;;;;;;;5.10;3.15;;;;;;;21.50;52.25;101478.13;5116678;28;20048;-77
2022/08/25 03:41:53;;;;;;;4.45;3.38;;;;;;;21.49;51.89;101476.41;5112612;27;20197;-78
2022/08/25 03:44:21;;;;;;;8.95;3.13;;;;;;;21.48;51.73;101474.69;5127328;28;20041;-79
2022/08/25 03:46:51;;;;;;;6.18;3.20;;;;;;;21.50;51.91;101477.28;5115807;28;20036;-79
2022/08/25 03:49:23;;;;;;;8.10;3.30;;;;;;;21.55;51.82;101472.44;5125136;28;20058;-78
2022/08/25 03:51:53;;;;;;;6.80;2.78;;;;;;;21.56;52.07;101469.69;5125471;27;20033;-76
2022/08/25 03:54:23;;;;;;;8.15;3.63;;;;;;;21.59;51.74;101475.81;5113138;27;20576;-75
2022/08/25 03:56:52;;;;;;;6.25;3.38;;;;;;;21.57;51.33;101465.16;5094727;27;20048;-72
2022/08/25 03:59:19;;;;;;;5.88;3.10;;;;;;;21.57;51.33;101467.84;5099896;28;20044;-73
2022/08/25 04:01:47;;;;;;;5.22;3.30;;;;;;;21.56;51.52;101467.00;5103826;28;20047;-73
2022/08/25 04:04:21;;;;;;;7.15;3.08;;;;;;;21.59;51.64;101465.97;5101051;28;20056;-73
2022/08/25 04:06:48;;;;;;;5.03;2.80;;;;;;;21.60;51.53;101458.75;5107376;27;20107;-74
2022/08/25 04:09:16;;;;;;;6.68;2.90;;;;;;;21.61;51.39;101463.16;5104611;27;20032;-74
2022/08/25 04:11:43;;;;;;;7.07;2.75;;;;;;;21.56;51.79;101458.97;5104786;27;20048;-74
2022/08/25 04:14:10;;;;;;;7.38;2.78;;;;;;;21.55;51.65;101459.03;5104082;27;20068;-73
2022/08/25 04:16:43;;;;;;;4.43;2.75;;;;;;;21.56;51.35;101460.75;5102497;27;20040;-73
2022/08/25 04:19:11;;;;;;;3.88;2.58;;;;;;;21.55;51.31;101459.91;5096597;27;20043;-72
2022/08/25 04:21:40;;;;;;;5.65;2.92;;;;;;;21.52;51.45;101460.09;5098309;28;20041;-73
2022/08/25 04:24:10;;;;;;;6.18;2.75;;;;;;;21.51;51.64;101454.88;5096920;28;20115;-72
2022/08/25 04:26:45;;;;;;;4.53;2.95;;;;;;;21.48;51.71;101455.06;5091176;28;20992;-72
2022/08/25 04:29:15;;;;;;;6.13;2.78;;;;;;;21.46;52.09;101455.16;5110622;28;20068;-72
2022/08/25 04:31:49;;;;;;;5.13;2.72;;;;;;;21.47;51.98;101464.91;5107800;27;20093;-72
2022/08/25 04:34:19;;;;;;;5.10;2.60;;;;;;;21.47;52.08;101454.19;5108494;27;20063;-72
2022/08/25 04:37:00;;;;;;;6.35;2.72;;;;;;;21.47;52.12;101451.50;5105439;27;20265;-72
2022/08/25 04:39:28;;;;;;;8.27;2.65;;;;;;;21.51;51.98;101457.53;5099775;27;22053;-72
2022/08/25 04:41:56;;;;;;;3.83;2.47;;;;;;;21.52;51.80;101451.19;5105079;27;20533;-72
2022/08/25 04:44:24;;;;;;;4.20;2.60;;;;;;;21.56;51.60;101450.03;5102423;27;20040;-73
2022/08/25 04:46:51;;;;;;;4.28;2.40;;;;;;;21.61;51.73;101452.44;5094905;27;20120;-74
2022/08/25 04:49:18;;;;;;;6.47;2.40;;;;;;;21.63;51.17;101456.72;5114309;27;20067;-74
2022/08/25 04:51:45;;;;;;;6.00;2.70;;;;;;;21.63;51.20;101456.72;5097027;27;20060;-74
2022/08/25 04:54:21;;;;;;;5.15;2.40;;;;;;;21.63;51.10;101458.56;5092993;27;20891;-74
2022/08/25 04:56:51;;;;;;;4.43;2.53;;;;;;;21.63;51.32;101458.56;5093978;28;20543;-73
2022/08/25 04:59:21;;;;;;;3.20;2.60;;;;;;;21.66;51.16;101464.56;5135627;27;20107;-73
2022/08/25 05:01:49;;;;;;;7.47;2.40;;;;;;;21.69;51.21;101464.38;5100321;27;20049;-73
2022/08/25 05:04:21;;;;;;;3.08;2.42;;;;;;;21.74;50.82;101452.44;5099199;28;20121;-74
2022/08/25 05:06:57;;;;;;;4.90;2.60;;;;;;;21.84;51.04;101456.22;5108509;27;20161;-73
2022/08/25 05:09:26;;;;;;;4.18;2.45;;;;;;;21.91;50.61;101451.31;5087868;28;20048;-73
2022/08/25 05:11:54;;;;;;;4.80;2.30;;;;;;;21.98;50.77;101453.47;5103783;28;20074;-73
2022/08/25 05:14:22;;;;;;;5.15;2.50;;;;;;;22.03;50.66;101454.00;5109820;27;20040;-73
2022/08/25 05:16:53;;;;;;;6.07;2.58;;;;;;;22.13;50.49;101453.38;5106735;27;20119;-73
2022/08/25 05:19:23;;;;;;;4.55;2.53;;;;;;;22.22;50.32;101459.91;5102918;27;20095;-71
2022/08/25 05:21:52;;;;;;;3.50;2.45;;;;;;;22.60;49.27;101454.56;5104702;27;20482;-71
2022/08/25 05:24:23;;;;;;;7.38;2.50;;;;;;;23.00;48.56;101455.31;5113304;27;20041;-71
2022/08/25 05:26:50;;;;;;;3.92;2.67;;;;;;;24.19;45.83;101454.47;5106717;27;20498;-71
2022/08/25 05:29:18;;;;;;;4.75;2.50;;;;;;;25.33;43.68;101439.00;5098691;27;20068;-71
2022/08/25 05:31:48;;;;;;;6.25;2.45;;;;;;;26.24;41.82;101443.94;5105407;28;20140;-72
2022/08/25 05:34:18;;;;;;;3.20;2.00;;;;;;;27.00;39.96;101444.50;5103590;27;20044;-72
2022/08/25 05:36:48;;;;;;;4.82;2.40;;;;;;;27.54;38.96;101447.69;5110464;28;20523;-74
2022/08/25 05:39:15;;;;;;;6.82;2.40;;;;;;;27.20;38.77;101451.66;5108282;28;20819;-74
2022/08/25 05:41:42;;;;;;;5.70;2.58;;;;;;;26.01;40.80;101459.44;5106059;28;20068;-73
2022/08/25 05:44:11;;;;;;;5.55;2.53;;;;;;;25.13;42.43;101459.56;5109850;28;20036;-74
2022/08/25 05:46:38;;;;;;;13.85;3.35;;;;;;;24.55;43.77;101462.44;5104735;27;20152;-74
2022/08/25 05:49:05;;;;;;;6.32;2.50;;;;;;;24.15;44.84;101463.75;5106949;27;20040;-73
2022/08/25 05:51:34;;;;;;;5.57;2.63;;;;;;;23.86;45.89;101469.53;5103564;27;20070;-73
2022/08/25 05:54:02;;;;;;;8.52;3.30;;;;;;;23.64;46.83;101479.25;5109019;28;20146;-72
2022/08/25 05:56:30;;;;;;;7.40;3.28;;;;;;;23.49;46.91;101472.34;5107597;27;20051;-71
2022/08/25 05:58:57;;;;;;;11.13;3.13;;;;;;;23.37;47.54;101475.00;5109395;27;20071;-74
2022/08/25 06:04:16;;;;;;;7.30;2.60;;;;;;;23.21;48.27;101483.34;5102760;28;20102;-72
2022/08/25 06:06:44;;;;;;;10.30;3.33;;;;;;;23.20;48.23;101475.38;5108269;28;20044;-72
2022/08/25 06:09:11;;;;;;;10.32;3.47;;;;;;;23.18;48.47;101485.38;5110344;27;20877;-72
2022/08/25 06:11:40;;;;;;;7.10;3.20;;;;;;;23.16;48.82;101480.06;5103843;28;20047;-73
2022/08/25 06:14:09;;;;;;;5.63;3.17;;;;;;;23.16;48.95;101482.78;5106919;27;20431;-74
2022/08/25 06:16:38;;;;;;;8.57;3.17;;;;;;;23.18;48.71;101483.53;5100219;27;20055;-73
2022/08/25 06:19:09;;;;;;;10.60;3.20;;;;;;;23.23;48.84;101483.22;5107628;28;20048;-73
2022/08/25 06:21:39;;;;;;;12.43;3.40;;;;;;;23.27;48.76;101474.81;5107610;27;20044;-72
2022/08/25 06:24:10;;;;;;;7.28;3.13;;;;;;;23.31;49.25;101474.59;5111200;27;20047;-73
2022/08/25 06:26:42;;;;;;;10.25;3.45;;;;;;;23.36;48.84;101475.97;5107338;27;20163;-74
2022/08/25 06:29:12;;;;;;;6.97;3.28;;;;;;;23.41;49.08;101471.06;5110260;27;20494;-74
2022/08/25 06:31:41;;;;;;;5.07;3.10;;;;;;;23.50;48.87;101483.00;5109359;27;20086;-75
2022/08/25 06:34:10;;;;;;;12.43;3.42;;;;;;;23.58;48.97;101485.94;5108563;27;20036;-74
2022/08/25 06:36:38;;;;;;;7.30;3.38;;;;;;;23.66;48.84;101485.38;5109664;28;20727;-74
2022/08/25 06:39:07;;;;;;;7.05;3.38;;;;;;;23.73;48.91;101481.22;5108557;27;20044;-73
2022/08/25 06:41:36;;;;;;;11.00;3.28;;;;;;;23.84;49.70;101485.81;5109373;27;20040;-75
2022/08/25 06:44:04;;;;;;;11.43;3.25;;;;;;;23.93;48.43;101481.53;5110946;27;20519;-74
2022/08/25 06:46:33;;;;;;;11.02;3.55;;;;;;;23.99;48.92;101477.53;5109034;28;20410;-75
2022/08/25 06:49:05;;;;;;;7.13;3.30;;;;;;;24.07;48.94;101482.34;5111745;27;20174;-74
2022/08/25 06:51:35;;;;;;;13.07;3.60;;;;;;;24.17;48.36;101478.81;5132401;27;20035;-75
2022/08/25 06:54:06;;;;;;;7.78;3.20;;;;;;;24.27;48.25;101478.06;5111788;27;20158;-76
2022/08/25 06:56:33;;;;;;;7.35;3.63;;;;;;;24.39;48.04;101481.66;5108686;27;20123;-74
2022/08/25 06:59:03;;;;;;;6.80;3.25;;;;;;;24.47;48.13;101484.59;5111524;27;20040;-74
2022/08/25 07:01:32;;;;;;;9.07;3.33;;;;;;;24.57;47.86;101476.66;5103942;28;20926;-75
2022/08/25 07:04:03;;;;;;;9.35;3.47;;;;;;;24.66;47.70;101482.16;5103336;28;20048;-75
2022/08/25 07:06:37;;;;;;;10.43;3.55;;;;;;;24.75;47.56;101469.81;5113155;27;20040;-75
2022/08/25 07:09:08;;;;;;;8.68;3.30;;;;;;;24.87;46.70;101467.09;5110285;27;20036;-76
2022/08/25 07:11:35;;;;;;;10.38;3.92;;;;;;;24.95;46.98;101468.16;5098022;28;20129;-73
2022/08/25 07:14:07;;;;;;;7.18;3.10;;;;;;;25.05;47.08;101462.00;5109017;27;20101;-73
2022/08/25 07:16:35;;;;;;;7.03;3.22;;;;;;;25.17;46.42;101462.88;5110941;28;20770;-72
2022/08/25 07:19:04;;;;;;;6.65;2.50;;;;;;;25.27;46.24;101461.13;5112596;27;20612;-73
2022/08/25 07:21:38;;;;;;;11.02;3.72;;;;;;;25.34;45.98;101467.69;5108654;27;20040;-72
2022/08/25 07:24:11;;;;;;;8.68;3.17;;;;;;;25.44;45.44;101459.72;5109136;27;20644;-73
2022/08/25 07:26:45;;;;;;;6.85;3.42;;;;;;;25.52;45.76;101462.63;5128083;27;20059;-74
2022/08/25 07:29:28;;;;;;;9.52;3.10;;;;;;;25.58;45.57;101463.97;5112358;27;20051;-73
2022/08/25 07:32:01;;;;;;;8.45;2.97;;;;;;;25.72;45.52;101463.63;5110317;27;20471;-73
2022/08/25 07:37:21;;;;;;;6.88;3.22;;;;;;;25.98;44.71;101463.25;5100957;28;20067;-75
2022/08/25 07:40:38;;;;;;;4.47;2.70;;;;;;;26.13;44.23;101460.22;5104998;28;20046;-72
2022/08/25 07:43:09;;;;;;;7.95;3.20;;;;;;;26.23;44.48;101454.88;5111270;27;20044;-73
2022/08/25 07:45:38;;;;;;;7.03;2.80;;;;;;;26.36;43.62;101458.19;5107540;27;20036;-72
2022/08/25 07:48:18;;;;;;;5.45;2.97;;;;;;;26.48;43.97;101461.69;5109173;27;20036;-74
2022/08/25 07:50:47;;;;;;;11.18;3.33;;;;;;;26.60;43.40;101452.50;5108085;28;20079;-73
2022/08/25 07:53:16;;;;;;;6.35;2.80;;;;;;;26.69;42.77;101456.19;5109071;27;20122;-73
2022/08/25 07:55:45;;;;;;;12.23;3.38;;;;;;;26.71;42.73;101462.34;5109854;27;20072;-74
2022/08/25 07:58:14;;;;;;;9.10;3.22;;;;;;;26.78;42.38;101462.69;5106360;27;20101;-71
2022/08/25 08:00:47;;;;;;;13.07;3.15;;;;;;;26.83;42.39;101454.16;5109500;28;20119;-73
2022/08/25 08:03:16;;;;;;;10.02;2.90;;;;;;;26.89;42.30;101465.28;5108708;27;20048;-73
2022/08/25 08:06:11;;;;;;;9.15;2.97;;;;;;;26.95;42.12;101455.75;5113527;27;20161;-74
2022/08/25 08:08:44;;;;;;;14.10;3.20;;;;;;;27.00;42.08;101458.03;5109535;27;20063;-75
2022/08/25 08:11:21;;;;;;;25.95;5.57;;;;;;;27.06;42.13;101452.06;5109072;27;20036;-74
2022/08/25 08:13:50;;;;;;;10.15;3.38;;;;;;;27.17;42.53;101453.75;5107991;27;20073;-74
2022/08/25 08:16:22;;;;;;;19.02;3.70;;;;;;;27.32;42.06;101455.06;5108747;27;20046;-75
2022/08/25 08:18:49;;;;;;;6.43;2.80;;;;;;;27.43;42.24;101443.22;5106778;27;20491;-75
2022/08/25 08:21:28;;;;;;;6.65;3.00;;;;;;;27.54;41.95;101445.84;5108418;27;20066;-75
2022/08/25 08:23:57;;;;;;;6.50;2.88;;;;;;;27.64;42.18;101440.41;5105906;27;20036;-75
2022/08/25 08:26:27;;;;;;;6.25;2.90;;;;;;;27.78;41.68;101446.41;5108876;27;20121;-75
2022/08/25 08:29:15;;;;;;;15.52;3.38;;;;;;;27.95;41.53;101444.78;5110145;27;20048;-74
2022/08/25 08:31:42;;;;;;;6.95;2.88;;;;;;;28.04;41.15;101433.91;5110208;27;20048;-76
2022/08/25 08:34:16;;;;;;;8.32;2.88;;;;;;;28.17;40.20;101432.78;5108817;27;20136;-74
2022/08/25 08:36:46;;;;;;;7.15;3.08;;;;;;;28.24;39.22;101427.59;5109401;27;20127;-76
2022/08/25 08:39:14;;;;;;;7.03;3.20;;;;;;;28.26;38.98;101425.59;5105021;27;20040;-75
2022/08/25 08:42:16;;;;;;;9.65;2.92;;;;;;;28.34;39.17;101428.41;5104108;27;20047;-76
2022/08/25 08:45:20;;;;;;;7.63;3.33;;;;;;;28.39;38.79;101423.41;5109354;27;20044;-74
2022/08/25 08:48:34;;;;;;;12.88;4.88;;;;;;;28.51;39.38;101424.06;5108067;27;20156;-76
2022/08/25 08:51:24;;;;;;;9.57;3.50;;;;;;;28.67;38.65;101415.25;5107679;27;20067;-75
2022/08/25 08:54:10;;;;;;;7.32;2.60;;;;;;;28.82;37.40;101410.19;5108879;27;20082;-76
2022/08/25 08:56:47;;;;;;;8.32;3.25;;;;;;;28.88;36.85;101411.44;5107097;27;20295;-75
2022/08/25 08:59:32;;;;;;;5.93;3.20;;;;;;;28.89;36.98;101403.19;5105369;27;20055;-75
2022/08/25 09:02:04;;;;;;;7.63;3.60;;;;;;;29.01;36.95;101402.91;5106026;27;20051;-73
2022/08/25 09:04:54;;;;;;;7.40;2.42;;;;;;;29.10;37.10;101415.59;5103803;27;20135;-75
2022/08/25 09:07:38;;;;;;;5.55;2.63;;;;;;;29.18;36.74;101406.66;5101110;27;20040;-74
2022/08/25 09:10:09;;;;;;;10.93;2.92;;;;;;;29.23;37.23;101420.63;5103490;27;20040;-73
2022/08/25 09:13:05;;;;;;;5.75;2.33;;;;;;;29.43;36.74;101413.19;5106134;27;20040;-74
2022/08/25 09:19:04;;;;;;;7.88;2.63;;;;;;;29.64;37.11;101410.13;5094280;27;20044;-73
2022/08/25 09:22:33;;;;;;;6.53;2.40;;;;;;;29.81;36.40;101410.25;5095232;27;20051;-74
2022/08/25 09:25:19;;;;;;;6.88;2.50;;;;;;;29.85;36.56;101408.91;5094056;27;20075;-75
2022/08/25 09:28:29;;;;;;;5.97;2.47;;;;;;;29.96;35.71;101408.69;5111390;27;20039;-73
2022/08/25 09:31:18;;;;;;;3.65;2.40;;;;;;;29.98;35.13;101398.47;5100383;27;20503;-73
2022/08/25 09:33:45;;;;;;;6.95;2.40;;;;;;;30.05;35.08;101404.13;5118603;27;20560;-76
2022/08/25 09:36:13;;;;;;;7.65;2.55;;;;;;;30.14;35.18;101405.03;5122075;27;20068;-74
2022/08/25 09:38:43;;;;;;;8.57;2.65;;;;;;;30.22;34.94;101402.34;5116507;27;20086;-75
2022/08/25 09:41:16;;;;;;;6.35;2.80;;;;;;;30.24;35.33;101402.19;5116178;27;20040;-75
2022/08/25 09:43:53;;;;;;;10.00;3.03;;;;;;;30.33;36.09;101393.03;5125797;27;20109;-70
2022/08/25 09:46:27;;;;;;;3.85;2.00;;;;;;;30.50;36.08;101397.53;5112696;27;20185;-73
2022/08/25 09:49:09;;;;;;;6.28;2.88;;;;;;;30.72;34.39;101402.56;5117296;27;20051;-74
2022/08/25 09:51:39;;;;;;;7.97;2.55;;;;;;;30.86;33.73;101391.03;5094114;28;20487;-75
2022/08/25 09:54:12;;;;;;;9.23;2.60;;;;;;;30.88;33.99;101397.13;5114292;27;20046;-72
2022/08/25 09:56:54;;;;;;;5.63;2.63;;;;;;;30.93;34.13;101393.94;5104607;27;20491;-73
2022/08/25 09:59:33;;;;;;;6.15;2.20;;;;;;;31.00;32.37;101389.53;5107326;27;20075;-73
2022/08/25 10:02:27;;;;;;;6.53;2.17;;;;;;;31.08;31.72;101389.53;5116249;27;20486;-73
2022/08/25 10:04:55;;;;;;;4.40;2.33;;;;;;;31.15;32.15;101389.72;5111301;27;20051;-74
2022/08/25 10:07:51;;;;;;;7.53;2.72;;;;;;;31.21;31.89;101385.47;5111875;27;20036;-74
2022/08/25 10:10:32;;;;;;;7.20;1.98;;;;;;;31.33;31.35;101372.38;5108891;27;20479;-74
2022/08/25 10:13:11;;;;;;;5.53;2.25;;;;;;;31.44;31.29;101377.47;5114010;27;20068;-74
2022/08/25 10:15:38;;;;;;;4.20;1.90;;;;;;;31.52;30.02;101371.16;5112639;27;20047;-75
2022/08/25 10:18:28;;;;;;;6.88;2.05;;;;;;;31.48;30.53;101370.66;5107120;27;20093;-75
2022/08/25 10:21:16;;;;;;;6.15;2.38;;;;;;;31.55;30.35;101371.66;5110272;27;20040;-75
2022/08/25 10:23:54;;;;;;;8.23;2.45;;;;;;;31.68;29.93;101367.59;5109905;27;20048;-75
2022/08/25 10:26:58;;;;;;;7.75;2.20;;;;;;;31.73;30.87;101357.88;5108730;27;20132;-73
2022/08/25 10:30:10;;;;;;;9.18;2.25;;;;;;;31.91;30.34;101351.34;5106382;27;20111;-76
2022/08/25 10:32:46;;;;;;;6.80;2.00;;;;;;;32.10;30.24;101352.78;5105126;27;20063;-76
2022/08/25 10:35:27;;;;;;;7.20;2.42;;;;;;;32.19;30.83;101350.88;5115943;27;20115;-74
2022/08/25 10:38:34;;;;;;;6.78;1.88;;;;;;;32.28;29.31;101340.84;5109881;27;20052;-75
2022/08/25 10:41:48;;;;;;;4.13;1.77;;;;;;;32.34;29.21;101340.09;5109180;27;20127;-75
2022/08/25 10:48:17;;;;;;;3.00;1.80;;;;;;;32.52;27.45;101316.13;5107772;27;20110;-73
2022/08/25 10:51:01;;;;;;;3.55;1.70;;;;;;;32.63;27.77;101316.75;5108817;27;20528;-74
2022/08/25 10:53:38;;;;;;;7.38;1.80;;;;;;;32.78;27.32;101320.41;5113652;27;20097;-74
2022/08/25 10:56:27;;;;;;;4.25;1.60;;;;;;;32.82;27.55;101310.81;5113043;27;20117;-75
2022/08/25 10:59:25;;;;;;;3.58;1.40;;;;;;;32.93;25.60;101304.09;5114095;27;20571;-75
2022/08/25 11:02:15;;;;;;;10.32;1.90;;;;;;;32.96;26.15;101308.34;5108466;27;20048;-73
2022/08/25 11:05:05;;;;;;;3.53;1.70;;;;;;;32.97;26.22;101310.88;5114670;27;20072;-73
2022/08/25 11:07:44;;;;;;;4.13;1.95;;;;;;;33.08;26.01;101300.53;5109304;27;20261;-73
2022/08/25 11:10:55;;;;;;;3.33;1.80;;;;;;;33.19;26.16;101296.53;5111804;27;20478;-73
2022/08/25 11:13:51;;;;;;;2.88;1.10;;;;;;;33.26;25.41;101292.88;5099006;28;20056;-73
2022/08/25 11:16:37;;;;;;;4.43;1.30;;;;;;;33.43;23.92;101290.84;5110648;27;20514;-73
2022/08/25 11:19:17;;;;;;;3.53;1.27;;;;;;;33.48;24.76;101295.72;5108764;27;20062;-74
2022/08/25 11:22:20;;;;;;;3.83;1.40;;;;;;;33.60;24.54;101294.25;5109117;27;20094;-74
2022/08/25 11:25:24;;;;;;;2.55;1.02;;;;;;;33.71;23.20;101283.88;5114801;27;20033;-73
2022/08/25 11:28:02;;;;;;;2.80;1.38;;;;;;;33.69;23.18;101280.47;5106241;27;20782;-73
2022/08/25 11:30:29;;;;;;;2.70;1.25;;;;;;;33.78;22.22;101283.97;5111333;27;20040;-73
2022/08/25 11:32:57;;;;;;;2.60;1.08;;;;;;;33.66;22.80;101284.44;5111490;27;20140;-72
2022/08/25 11:35:49;;;;;;;4.35;1.13;;;;;;;33.72;22.49;101286.44;5115583;27;20047;-72
2022/08/25 11:38:23;;;;;;;8.13;1.20;;;;;;;33.78;22.95;101289.44;5107129;28;20100;-74
2022/08/25 11:41:23;;;;;;;3.05;1.35;;;;;;;33.87;23.19;101277.38;5111489;27;20103;-74
2022/08/25 11:44:41;;;;;;;4.50;1.30;;;;;;;34.01;24.38;101284.72;5107301;27;20540;-74
2022/08/25 11:47:57;;;;;;;2.45;1.38;;;;;;;34.15;24.27;101274.78;5103476;27;20087;-74
2022/08/25 11:51:05;;;;;;;2.50;1.42;;;;;;;34.24;23.48;101267.28;5110256;28;20040;-74
2022/08/25 11:53:42;;;;;;;4.07;1.52;;;;;;;34.28;23.54;101268.59;5114953;27;20043;-71
2022/08/25 11:56:31;;;;;;;5.13;1.40;;;;;;;34.32;24.06;101261.72;5109957;28;20044;-71
2022/08/25 11:59:00;;;;;;;2.40;1.50;;;;;;;34.37;24.04;101264.72;5112021;27;20043;-72
2022/08/25 12:01:44;;;;;;;3.53;1.60;;;;;;;34.47;23.90;101252.63;5111157;27;20506;-72
2022/08/25 12:04:41;;;;;;;4.55;1.55;;;;;;;34.53;23.68;101252.69;5112037;27;20106;-71
2022/08/25 12:07:20;;;;;;;3.67;1.50;;;;;;;34.52;22.46;101247.44;5110326;27;20048;-70
2022/08/25 12:09:49;;;;;;;4.22;2.45;;;;;;;34.47;23.19;101241.69;5113522;27;20075;-71
2022/08/25 12:12:56;;;;;;;6.97;1.60;;;;;;;34.48;22.77;101249.72;5109742;27;20036;-71